Time;durP1;ratioP1;P1;durP2;ratioP2;P2;SDS_P1;SDS_P2;PMS_P1;PMS_P2;Temp;Humidity;BMP_temperature;BMP_pressure;BME280_temperature;BME280_humidity;BME280_pressure;Samples;Min_cycle;Max_cycle;Signal;HPM_P1;HPM_P2
2021/11/05 00:00:41;;;;;;;3.65;2.60;;;3.40;99.90;;;;;;4753243;30;20048;-81
2021/11/05 00:03:09;;;;;;;2.60;2.28;;;3.40;99.90;;;;;;4769105;30;20604;-81
2021/11/05 00:05:37;;;;;;;3.25;2.95;;;3.40;99.90;;;;;;4786451;29;20059;-81
2021/11/05 00:08:08;;;;;;;3.15;2.95;;;3.30;99.90;;;;;;4787464;29;20506;-81
2021/11/05 00:10:37;;;;;;;;;;;3.30;99.90;;;;;;4778839;30;20047;-81
2021/11/05 00:13:05;;;;;;;2.20;2.10;;;3.20;99.90;;;;;;4782073;30;20384;-81
2021/11/05 00:15:33;;;;;;;2.65;2.45;;;3.10;99.90;;;;;;4764605;30;20048;-80
2021/11/05 00:18:01;;;;;;;3.92;3.55;;;3.10;99.90;;;;;;4750188;30;20048;-80
2021/11/05 00:20:29;;;;;;;3.63;3.33;;;3.00;99.90;;;;;;4750385;30;20060;-81
2021/11/05 00:22:57;;;;;;;2.28;2.10;;;2.90;99.90;;;;;;4749839;30;20052;-80
2021/11/05 00:25:25;;;;;;;3.47;3.17;;;2.90;99.90;;;;;;4734921;30;20052;-81
2021/11/05 00:27:53;;;;;;;4.53;3.28;;;2.80;99.90;;;;;;4764652;30;20064;-81
2021/11/05 00:30:21;;;;;;;3.15;2.95;;;2.80;99.90;;;;;;4762486;30;20525;-80
2021/11/05 00:32:49;;;;;;;4.20;3.65;;;3.10;99.90;;;;;;4786497;30;20065;-80
2021/11/05 00:35:17;;;;;;;3.42;3.05;;;2.90;99.90;;;;;;4786108;29;20520;-81
2021/11/05 00:37:44;;;;;;;3.00;2.80;;;3.10;99.90;;;;;;4770595;30;20043;-81
2021/11/05 00:40:14;;;;;;;2.97;2.78;;;3.10;99.90;;;;;;4770570;30;20058;-81
2021/11/05 00:42:42;;;;;;;3.28;2.95;;;3.00;99.90;;;;;;4785965;29;20055;-81
2021/11/05 00:45:10;;;;;;;3.08;2.88;;;3.20;99.90;;;;;;4784418;29;20070;-81
2021/11/05 00:47:38;;;;;;;3.90;2.50;;;3.00;99.90;;;;;;4782820;29;20059;-80
2021/11/05 00:50:06;;;;;;;2.50;2.40;;;3.00;99.90;;;;;;4768986;30;20056;-86
2021/11/05 00:52:34;;;;;;;2.35;2.22;;;3.00;99.90;;;;;;4769318;30;20059;-87
2021/11/05 00:55:02;;;;;;;3.10;2.78;;;2.90;99.90;;;;;;4753556;29;20055;-86
2021/11/05 00:57:38;;;;;;;2.88;2.67;;;2.90;99.90;;;;;;4769762;30;20044;-87
2021/11/05 01:00:12;;;;;;;8.77;4.28;;;2.80;99.90;;;;;;4769123;30;20060;-86
2021/11/05 01:02:42;;;;;;;3.10;2.90;;;2.70;99.90;;;;;;4768213;29;20056;-86
2021/11/05 01:05:11;;;;;;;5.15;3.67;;;2.60;99.90;;;;;;4753999;30;20058;-86
2021/11/05 01:07:40;;;;;;;4.05;3.75;;;2.50;99.90;;;;;;4754087;30;20083;-86
2021/11/05 01:10:08;;;;;;;3.47;3.17;;;2.50;99.90;;;;;;4752813;30;20071;-86
2021/11/05 01:12:36;;;;;;;3.47;3.25;;;2.30;99.90;;;;;;4736184;30;20085;-86
2021/11/05 01:15:05;;;;;;;3.53;2.92;;;2.10;99.90;;;;;;4720945;30;20181;-86
2021/11/05 01:17:35;;;;;;;5.18;4.38;;;2.20;99.90;;;;;;4735484;30;20040;-86
2021/11/05 01:20:05;;;;;;;2.75;2.55;;;2.20;99.90;;;;;;4754201;30;20052;-86
2021/11/05 01:22:33;;;;;;;4.25;2.88;;;2.20;99.90;;;;;;4785558;29;20050;-86
2021/11/05 01:25:01;;;;;;;2.95;2.75;;;2.10;99.90;;;;;;4783597;30;20059;-85
2021/11/05 01:27:29;;;;;;;2.75;2.47;;;2.10;99.90;;;;;;4753353;30;20055;-86
2021/11/05 01:29:58;;;;;;;3.17;2.97;;;2.10;99.90;;;;;;4757717;30;20048;-86
2021/11/05 01:32:27;;;;;;;3.80;3.17;;;1.90;99.90;;;;;;4766649;30;20406;-80
2021/11/05 01:34:56;;;;;;;3.08;2.88;;;1.80;99.90;;;;;;4767241;29;20088;-80
2021/11/05 01:37:24;;;;;;;3.17;2.97;;;1.60;99.90;;;;;;4767438;30;20055;-80
2021/11/05 01:39:52;;;;;;;5.03;3.30;;;1.60;99.90;;;;;;4737051;30;20082;-80
2021/11/05 01:42:19;;;;;;;3.25;2.95;;;1.50;99.90;;;;;;4736816;30;20494;-80
2021/11/05 01:44:47;;;;;;;2.55;2.35;;;1.40;99.90;;;;;;4751980;30;20478;-80
2021/11/05 01:47:20;;;;;;;2.80;2.50;;;1.20;99.90;;;;;;4765737;30;20059;-80
2021/11/05 01:49:51;;;;;;;2.70;2.50;;;1.20;99.90;;;;;;4767157;30;20052;-80
2021/11/05 01:52:19;;;;;;;3.40;3.00;;;1.10;99.90;;;;;;4767939;30;20078;-80
2021/11/05 01:54:49;;;;;;;2.95;2.70;;;1.10;99.90;;;;;;4765890;29;20074;-80
2021/11/05 01:57:17;;;;;;;4.22;3.53;;;0.90;99.90;;;;;;4766834;30;20052;-80
2021/11/05 01:59:51;;;;;;;5.22;3.53;;;0.80;99.90;;;;;;4766174;30;20144;-79
2021/11/05 02:02:20;;;;;;;3.13;2.92;;;0.80;99.90;;;;;;4750462;30;20063;-80
2021/11/05 02:04:48;;;;;;;3.72;3.03;;;0.80;99.90;;;;;;4771040;30;20414;-80
2021/11/05 02:07:16;;;;;;;3.08;2.78;;;0.70;99.90;;;;;;4767210;30;20040;-79
2021/11/05 02:09:45;;;;;;;3.00;2.80;;;0.70;99.90;;;;;;4766585;30;20562;-79
2021/11/05 02:12:13;;;;;;;3.38;2.78;;;0.70;99.90;;;;;;4767064;30;20070;-79
2021/11/05 02:14:42;;;;;;;2.50;2.30;;;0.70;99.90;;;;;;4753676;30;20072;-79
2021/11/05 02:17:10;;;;;;;3.30;3.08;;;0.60;99.90;;;;;;4750084;30;20091;-79
2021/11/05 02:19:38;;;;;;;3.97;3.67;;;0.50;99.90;;;;;;4767451;30;20063;-79
2021/11/05 02:22:06;;;;;;;3.33;3.03;;;0.50;99.90;;;;;;4766773;29;20047;-80
2021/11/05 02:24:34;;;;;;;2.55;2.35;;;0.40;99.90;;;;;;4767431;30;20051;-79
2021/11/05 02:27:03;;;;;;;2.83;2.63;;;0.40;99.90;;;;;;4766476;30;20058;-79
2021/11/05 02:29:32;;;;;;;4.75;3.20;;;0.40;99.90;;;;;;4754884;30;20059;-79
2021/11/05 02:32:01;;;;;;;5.53;2.67;;;0.40;99.90;;;;;;4784529;30;20063;-79
2021/11/05 02:34:31;;;;;;;3.08;1.98;;;0.20;99.90;;;;;;4776026;29;20090;-79
2021/11/05 02:37:02;;;;;;;4.07;3.78;;;0.30;99.90;;;;;;4766658;30;20052;-79
2021/11/05 02:39:32;;;;;;;3.22;1.73;;;0.40;99.90;;;;;;4766742;30;20140;-79
2021/11/05 02:42:01;;;;;;;2.75;2.00;;;0.50;99.90;;;;;;4766213;30;20059;-78
2021/11/05 02:44:28;;;;;;;2.13;2.03;;;0.60;99.90;;;;;;4768459;30;20055;-79
2021/11/05 02:46:56;;;;;;;2.67;2.47;;;0.70;99.90;;;;;;4769591;30;20062;-79
2021/11/05 02:49:24;;;;;;;1.92;1.73;;;0.80;99.90;;;;;;4769605;30;20052;-79
2021/11/05 02:51:53;;;;;;;4.43;2.17;;;0.70;99.90;;;;;;4770592;30;20055;-79
2021/11/05 02:54:21;;;;;;;3.75;1.80;;;0.60;99.90;;;;;;4769575;30;20450;-82
2021/11/05 02:56:48;;;;;;;2.83;2.53;;;0.70;99.90;;;;;;4754122;30;20057;-79
2021/11/05 02:59:16;;;;;;;4.07;2.10;;;0.80;99.90;;;;;;4769851;30;20111;-79
2021/11/05 03:01:44;;;;;;;2.78;2.53;;;0.80;99.90;;;;;;4752997;30;20055;-79
2021/11/05 03:04:14;;;;;;;2.30;2.17;;;0.80;99.90;;;;;;4778921;30;20054;-79
2021/11/05 03:06:43;;;;;;;2.72;2.53;;;0.90;99.90;;;;;;4770896;29;20052;-79
2021/11/05 03:09:14;;;;;;;1.85;1.73;;;0.70;99.90;;;;;;4752203;30;20056;-79
2021/11/05 03:11:43;;;;;;;2.83;2.63;;;0.70;99.90;;;;;;4751434;30;20055;-79
2021/11/05 03:14:12;;;;;;;2.95;1.90;;;0.60;99.90;;;;;;4752086;30;20426;-79
2021/11/05 03:16:40;;;;;;;2.33;2.05;;;0.70;99.90;;;;;;4751546;30;20067;-79
2021/11/05 03:19:09;;;;;;;2.33;2.13;;;0.50;99.90;;;;;;4751962;30;20044;-79
2021/11/05 03:21:39;;;;;;;2.20;2.10;;;0.30;99.90;;;;;;4751552;30;20060;-79
2021/11/05 03:24:16;;;;;;;2.53;2.25;;;0.10;99.90;;;;;;4752401;30;20487;-79
2021/11/05 03:26:45;;;;;;;2.70;2.50;;;0.10;99.90;;;;;;4767154;30;20057;-79
2021/11/05 03:29:13;;;;;;;2.05;1.77;;;0.10;99.90;;;;;;4755468;30;20538;-79
2021/11/05 03:31:41;;;;;;;1.70;1.60;;;0.00;99.90;;;;;;4756446;30;20070;-79
2021/11/05 03:34:09;;;;;;;2.03;1.83;;;0.00;99.90;;;;;;4787635;29;20059;-79
2021/11/05 03:36:37;;;;;;;2.40;2.30;;;-0.20;99.90;;;;;;4787901;30;20050;-79
2021/11/05 03:39:05;;;;;;;2.25;2.05;;;-0.40;99.90;;;;;;4787420;29;20409;-79
2021/11/05 03:41:34;;;;;;;2.10;1.83;;;-0.50;99.90;;;;;;4786637;29;20047;-79
2021/11/05 03:44:02;;;;;;;2.10;2.00;;;-0.60;99.90;;;;;;4787742;30;20048;-79
2021/11/05 03:46:32;;;;;;;2.00;1.90;;;-0.60;99.90;;;;;;4786036;29;20048;-79
2021/11/05 03:49:00;;;;;;;3.63;3.33;;;-0.50;99.90;;;;;;4787350;29;20066;-79
2021/11/05 03:51:28;;;;;;;3.05;2.85;;;-0.20;99.90;;;;;;4770927;30;20809;-79
2021/11/05 03:53:56;;;;;;;5.55;2.35;;;-0.10;99.90;;;;;;4786884;29;20055;-79
2021/11/05 03:56:25;;;;;;;2.47;2.28;;;0.00;99.90;;;;;;4786980;29;20072;-79
2021/11/05 03:58:53;;;;;;;4.68;1.98;;;0.20;99.90;;;;;;4786543;29;20050;-79
2021/11/05 04:01:21;;;;;;;2.65;2.45;;;0.10;99.90;;;;;;4769933;29;20054;-79
2021/11/05 04:03:49;;;;;;;2.97;2.72;;;-0.10;99.90;;;;;;4787056;29;20048;-79
2021/11/05 04:06:19;;;;;;;2.35;2.25;;;0.00;99.90;;;;;;4786694;29;20051;-79
2021/11/05 04:08:47;;;;;;;1.58;1.48;;;0.00;99.90;;;;;;4787191;30;20058;-79
2021/11/05 04:11:16;;;;;;;1.65;1.63;;;-0.10;99.90;;;;;;4785791;29;20048;-79
2021/11/05 04:13:45;;;;;;;2.50;1.75;;;-0.10;99.90;;;;;;4783546;29;20052;-79
2021/11/05 04:16:13;;;;;;;2.38;2.28;;;0.00;99.90;;;;;;4769670;30;20508;-84
2021/11/05 04:18:41;;;;;;;3.22;2.70;;;0.10;99.90;;;;;;4769854;30;20437;-84
2021/11/05 04:21:09;;;;;;;2.17;2.08;;;0.20;99.90;;;;;;4769690;29;20058;-84
2021/11/05 04:23:38;;;;;;;1.73;1.63;;;0.30;99.90;;;;;;4769707;30;20528;-84
2021/11/05 04:26:06;;;;;;;2.22;2.03;;;0.40;99.90;;;;;;4769059;30;20066;-85
2021/11/05 04:28:34;;;;;;;2.22;2.03;;;0.40;99.90;;;;;;4769807;30;20071;-85
2021/11/05 04:31:03;;;;;;;32.58;4.60;;;0.10;99.90;;;;;;4782652;30;20465;-84
2021/11/05 04:33:33;;;;;;;2.45;2.28;;;0.00;99.90;;;;;;4773120;30;20058;-85
2021/11/05 04:36:03;;;;;;;1.95;1.85;;;0.00;99.90;;;;;;4771080;30;20058;-84
2021/11/05 04:38:31;;;;;;;8.32;2.08;;;0.00;99.90;;;;;;4770411;30;20059;-84
2021/11/05 04:40:58;;;;;;;2.63;2.42;;;0.00;99.90;;;;;;4785161;29;20059;-85
2021/11/05 04:43:26;;;;;;;3.30;2.17;;;0.00;99.90;;;;;;4786954;30;20062;-84
2021/11/05 04:45:54;;;;;;;2.33;2.13;;;0.10;99.90;;;;;;4755295;30;20055;-85
2021/11/05 04:48:22;;;;;;;1.98;1.67;;;0.10;99.90;;;;;;4761948;30;20052;-84
2021/11/05 04:50:51;;;;;;;3.05;2.85;;;0.20;99.90;;;;;;4767061;30;20044;-84
2021/11/05 04:53:19;;;;;;;3.20;2.17;;;0.20;99.90;;;;;;4752405;30;20052;-84
2021/11/05 04:55:46;;;;;;;3.33;3.03;;;0.20;99.90;;;;;;4782337;30;20063;-85
2021/11/05 04:58:14;;;;;;;2.20;2.10;;;0.20;99.90;;;;;;4766489;30;20528;-79
2021/11/05 05:00:42;;;;;;;2.28;1.90;;;0.30;99.90;;;;;;4768083;30;20067;-79
2021/11/05 05:03:10;;;;;;;2.45;2.25;;;0.20;99.90;;;;;;4767462;30;20051;-82
2021/11/05 05:05:38;;;;;;;2.33;1.90;;;0.20;99.90;;;;;;4767581;30;20059;-79
2021/11/05 05:08:07;;;;;;;1.83;1.73;;;0.20;99.90;;;;;;4751931;30;20436;-79
2021/11/05 05:10:35;;;;;;;2.28;2.08;;;0.20;99.90;;;;;;4767447;30;20051;-79
2021/11/05 05:13:02;;;;;;;3.03;2.83;;;0.20;99.90;;;;;;4767328;30;20066;-79
2021/11/05 05:15:30;;;;;;;2.53;2.35;;;0.20;99.90;;;;;;4764787;30;20051;-79
2021/11/05 05:17:58;;;;;;;2.88;2.38;;;0.20;99.90;;;;;;4755390;30;20059;-79
2021/11/05 05:20:26;;;;;;;2.13;1.98;;;0.20;99.90;;;;;;4768053;30;20087;-79
2021/11/05 05:22:56;;;;;;;2.08;1.98;;;0.20;99.90;;;;;;4767621;30;20056;-79
2021/11/05 05:25:25;;;;;;;4.32;4.03;;;0.10;99.90;;;;;;4772104;29;20059;-79
2021/11/05 05:27:53;;;;;;;2.47;2.30;;;0.20;99.90;;;;;;4751318;30;20060;-79
2021/11/05 05:30:20;;;;;;;3.22;3.00;;;0.10;99.90;;;;;;4775812;30;20051;-79
2021/11/05 05:32:49;;;;;;;3.22;3.00;;;0.30;99.90;;;;;;4784030;30;20058;-79
2021/11/05 05:35:18;;;;;;;3.20;2.90;;;0.30;99.90;;;;;;4784168;29;20051;-79
2021/11/05 05:37:47;;;;;;;2.28;2.08;;;0.40;99.90;;;;;;4768890;30;20055;-79
2021/11/05 05:40:15;;;;;;;2.33;2.13;;;0.30;99.90;;;;;;4784168;29;20062;-79
2021/11/05 05:42:45;;;;;;;2.05;1.85;;;0.30;99.90;;;;;;4784588;29;20081;-79
2021/11/05 05:45:15;;;;;;;2.05;1.95;;;0.40;99.90;;;;;;4783621;29;20044;-79
2021/11/05 05:47:44;;;;;;;2.28;2.17;;;0.40;99.90;;;;;;4785123;30;20055;-79
2021/11/05 05:50:14;;;;;;;2.22;2.10;;;0.20;99.90;;;;;;4754618;30;20051;-79
2021/11/05 05:52:43;;;;;;;6.00;2.17;;;0.10;99.90;;;;;;4769395;30;20055;-79
2021/11/05 05:55:12;;;;;;;2.70;2.50;;;0.00;99.90;;;;;;4768968;29;20054;-79
2021/11/05 05:57:41;;;;;;;3.13;2.28;;;-0.10;99.90;;;;;;4771837;30;20054;-79
2021/11/05 06:00:12;;;;;;;1.67;1.58;;;-0.10;99.90;;;;;;4765997;30;20052;-79
2021/11/05 06:02:40;;;;;;;;;;;-0.20;99.90;;;;;;4766924;30;20055;-79
2021/11/05 06:05:08;;;;;;;2.30;2.15;;;-0.30;99.90;;;;;;4767011;30;19933;-79
2021/11/05 06:07:36;;;;;;;1.80;1.70;;;-0.40;99.90;;;;;;4767680;30;20055;-79
2021/11/05 06:10:05;;;;;;;2.55;2.35;;;-0.20;99.90;;;;;;4765317;30;20052;-79
2021/11/05 06:12:35;;;;;;;2.65;2.30;;;-0.20;99.90;;;;;;4737984;30;20063;-79
2021/11/05 06:15:04;;;;;;;2.83;2.63;;;-0.10;99.90;;;;;;4766619;30;20070;-79
2021/11/05 06:17:32;;;;;;;2.10;2.00;;;-0.10;99.90;;;;;;4766475;30;20052;-79
2021/11/05 06:20:00;;;;;;;2.80;2.60;;;-0.10;99.90;;;;;;4770984;30;20406;-79
2021/11/05 06:22:28;;;;;;;2.20;2.10;;;-0.10;99.90;;;;;;4739518;30;20058;-78
2021/11/05 06:24:57;;;;;;;1.80;1.70;;;-0.10;99.90;;;;;;4754110;30;20055;-79
2021/11/05 06:27:27;;;;;;;1.65;1.55;;;0.00;99.90;;;;;;4769028;30;20406;-79
2021/11/05 06:29:55;;;;;;;2.45;2.35;;;0.10;99.90;;;;;;4776555;30;20047;-79
2021/11/05 06:32:23;;;;;;;5.05;2.28;;;0.10;99.90;;;;;;4772218;30;20059;-79
2021/11/05 06:34:51;;;;;;;4.45;2.55;;;0.20;99.90;;;;;;4787997;29;20054;-79
2021/11/05 06:37:19;;;;;;;2.22;2.10;;;0.20;99.90;;;;;;4787796;29;20047;-79
2021/11/05 06:39:47;;;;;;;2.65;2.38;;;0.30;99.90;;;;;;4772419;30;20063;-79
2021/11/05 06:42:20;;;;;;;2.33;2.22;;;0.40;99.90;;;;;;4787830;29;20055;-79
2021/11/05 06:44:52;;;;;;;2.90;2.67;;;0.40;99.90;;;;;;4788745;29;20055;-79
2021/11/05 06:47:20;;;;;;;1.80;1.70;;;0.50;99.90;;;;;;4786413;29;20051;-79
2021/11/05 06:49:48;;;;;;;1.88;1.77;;;0.60;99.90;;;;;;4770609;30;20577;-79
2021/11/05 06:52:16;;;;;;;2.40;1.90;;;0.50;99.90;;;;;;4770647;30;20064;-79
2021/11/05 06:54:44;;;;;;;1.90;1.80;;;0.40;99.90;;;;;;4770068;30;20573;-79
2021/11/05 06:57:11;;;;;;;3.83;3.50;;;0.40;99.90;;;;;;4769798;30;20388;-79
2021/11/05 06:59:39;;;;;;;4.35;2.28;;;0.30;99.90;;;;;;4770500;30;20067;-79
2021/11/05 07:02:07;;;;;;;1.70;1.60;;;0.40;99.90;;;;;;4769119;30;20083;-79
2021/11/05 07:04:35;;;;;;;2.22;2.03;;;0.50;99.90;;;;;;4750744;30;20081;-79
2021/11/05 07:07:03;;;;;;;2.83;2.63;;;0.50;99.90;;;;;;4788049;29;20051;-79
2021/11/05 07:09:31;;;;;;;3.13;2.85;;;0.50;99.90;;;;;;4771922;30;20064;-79
2021/11/05 07:11:59;;;;;;;2.60;2.50;;;0.40;99.90;;;;;;4787316;30;20055;-79
2021/11/05 07:14:26;;;;;;;2.55;2.30;;;0.40;99.90;;;;;;4787916;29;20422;-79
2021/11/05 07:16:54;;;;;;;2.80;2.33;;;0.50;99.90;;;;;;4786545;29;20070;-80
2021/11/05 07:19:24;;;;;;;3.00;2.80;;;0.70;99.90;;;;;;4788117;30;20047;-79
2021/11/05 07:22:01;;;;;;;2.45;2.30;;;0.90;99.90;;;;;;4787081;29;20039;-79
2021/11/05 07:24:32;;;;;;;3.17;2.47;;;1.00;99.90;;;;;;4788055;30;20130;-79
2021/11/05 07:27:00;;;;;;;6.18;4.10;;;1.20;99.90;;;;;;4769462;30;20055;-79
2021/11/05 07:29:28;;;;;;;2.30;2.10;;;1.20;99.90;;;;;;4772564;29;20050;-79
2021/11/05 07:31:58;;;;;;;2.88;2.67;;;1.30;99.90;;;;;;4786919;30;20078;-79
2021/11/05 07:34:30;;;;;;;2.97;2.30;;;1.40;99.90;;;;;;4787488;29;20051;-79
2021/11/05 07:37:02;;;;;;;2.42;2.22;;;1.60;99.90;;;;;;4787256;29;20497;-79
2021/11/05 07:39:30;;;;;;;3.80;2.35;;;1.70;99.90;;;;;;4787649;30;20059;-79
2021/11/05 07:41:58;;;;;;;2.47;2.28;;;1.90;99.90;;;;;;4786560;29;20416;-81
2021/11/05 07:44:25;;;;;;;2.17;2.08;;;2.10;99.90;;;;;;4787768;29;20047;-79
2021/11/05 07:46:53;;;;;;;1.65;1.55;;;2.20;99.90;;;;;;4786404;29;20048;-79
2021/11/05 07:49:21;;;;;;;2.38;2.28;;;2.20;99.90;;;;;;4787218;29;20417;-78
2021/11/05 07:51:49;;;;;;;2.70;2.50;;;2.50;99.90;;;;;;4787326;29;20394;-80
2021/11/05 07:54:17;;;;;;;3.15;2.92;;;2.60;99.90;;;;;;4786480;29;20062;-79
2021/11/05 07:56:46;;;;;;;2.20;2.08;;;2.50;99.90;;;;;;4786920;29;20089;-79
2021/11/05 07:59:14;;;;;;;3.30;3.00;;;2.40;99.90;;;;;;4786667;29;20062;-81
2021/11/05 08:01:42;;;;;;;1.95;1.85;;;2.40;99.90;;;;;;4783875;29;20048;-79
2021/11/05 08:04:09;;;;;;;2.55;2.45;;;2.40;99.90;;;;;;4787421;30;20051;-79
2021/11/05 08:06:37;;;;;;;2.97;2.78;;;2.50;99.90;;;;;;4786798;29;20416;-79
2021/11/05 08:09:05;;;;;;;2.30;2.20;;;2.60;99.90;;;;;;4786785;29;20051;-79
2021/11/05 08:11:35;;;;;;;3.90;2.75;;;2.80;99.90;;;;;;4787067;29;20512;-80
2021/11/05 08:14:05;;;;;;;4.10;3.70;;;2.90;99.90;;;;;;4781021;29;20055;-79
2021/11/05 08:16:34;;;;;;;3.08;2.53;;;3.10;99.90;;;;;;4768613;30;20133;-79
2021/11/05 08:19:02;;;;;;;3.85;2.60;;;3.20;99.90;;;;;;4768835;30;20091;-82
2021/11/05 08:21:30;;;;;;;1.92;1.80;;;3.20;99.90;;;;;;4767779;29;20059;-79
2021/11/05 08:23:59;;;;;;;3.35;2.63;;;3.30;99.90;;;;;;4769395;30;20508;-80
2021/11/05 08:26:28;;;;;;;3.15;2.83;;;3.50;99.90;;;;;;4768610;30;20052;-82
2021/11/05 08:28:57;;;;;;;5.45;2.47;;;3.40;99.90;;;;;;4768604;30;20421;-82
2021/11/05 08:31:26;;;;;;;13.73;4.50;;;3.60;99.90;;;;;;4786237;30;20074;-82
2021/11/05 08:33:54;;;;;;;2.45;2.30;;;3.60;99.90;;;;;;4786075;29;20063;-82
2021/11/05 08:36:24;;;;;;;2.45;2.28;;;3.70;99.90;;;;;;4769856;30;20058;-86
2021/11/05 08:38:53;;;;;;;2.85;2.65;;;3.70;99.90;;;;;;4779231;29;20059;-83
2021/11/05 08:41:21;;;;;;;3.42;2.47;;;3.90;99.90;;;;;;4767307;30;20055;-84
2021/11/05 08:43:52;;;;;;;2.70;2.50;;;4.00;99.90;;;;;;4752896;30;20498;-85
2021/11/05 08:46:25;;;;;;;3.40;2.28;;;4.00;99.90;;;;;;4762018;30;20044;-85
2021/11/05 08:49:12;;;;;;;4.05;2.72;;;4.10;99.90;;;;;;4755478;29;20064;-85
2021/11/05 08:51:43;;;;;;;2.85;2.63;;;4.20;99.90;;;;;;4769810;30;20048;-85
2021/11/05 08:54:11;;;;;;;2.80;2.60;;;4.20;99.90;;;;;;4748578;30;20059;-83
2021/11/05 08:56:40;;;;;;;3.28;2.35;;;4.30;99.90;;;;;;4752135;30;20078;-81
2021/11/05 08:59:12;;;;;;;2.50;2.30;;;4.50;99.90;;;;;;4766440;30;20052;-80
2021/11/05 09:01:40;;;;;;;2.55;2.35;;;4.50;99.90;;;;;;4751287;30;20055;-80
2021/11/05 09:04:11;;;;;;;3.03;2.58;;;4.60;99.90;;;;;;4774260;30;20052;-81
2021/11/05 09:06:46;;;;;;;3.40;2.97;;;4.60;99.90;;;;;;4751151;30;20509;-78
2021/11/05 09:09:15;;;;;;;2.17;2.03;;;4.60;99.90;;;;;;4759939;30;22575;-80
2021/11/05 09:11:53;;;;;;;4.25;2.35;;;4.70;99.90;;;;;;4736297;30;20056;-80
2021/11/05 09:14:21;;;;;;;2.22;2.13;;;4.70;99.90;;;;;;4735928;30;20055;-79
2021/11/05 09:17:08;;;;;;;2.55;2.40;;;4.70;99.90;;;;;;4765827;30;20063;-80
2021/11/05 09:19:36;;;;;;;5.18;2.85;;;4.80;99.90;;;;;;4765061;30;20059;-80
2021/11/05 09:22:04;;;;;;;2.63;2.42;;;4.80;99.90;;;;;;4765722;30;20076;-82
2021/11/05 09:24:33;;;;;;;2.13;2.03;;;4.80;99.90;;;;;;4767465;30;20052;-79
2021/11/05 09:27:01;;;;;;;2.25;2.15;;;4.90;99.90;;;;;;4766431;30;20051;-79
2021/11/05 09:29:29;;;;;;;3.33;2.85;;;5.00;99.90;;;;;;4770401;30;20410;-78
2021/11/05 09:31:57;;;;;;;3.63;2.33;;;5.10;99.90;;;;;;4768270;30;20402;-79
2021/11/05 09:34:24;;;;;;;3.78;3.35;;;5.00;99.90;;;;;;4783065;29;20525;-78
2021/11/05 09:36:53;;;;;;;4.65;2.80;;;5.00;99.90;;;;;;4784761;30;20061;-79
2021/11/05 09:39:20;;;;;;;2.53;2.33;;;5.20;99.90;;;;;;4783932;29;20062;-79
2021/11/05 09:41:49;;;;;;;3.58;2.55;;;5.30;99.90;;;;;;4769956;29;20047;-79
2021/11/05 09:44:17;;;;;;;4.03;2.65;;;5.40;99.90;;;;;;4748502;30;20056;-79
2021/11/05 09:46:46;;;;;;;2.95;2.58;;;5.50;99.90;;;;;;4764474;30;20424;-79
2021/11/05 09:49:14;;;;;;;3.47;2.72;;;5.50;99.90;;;;;;4766562;30;20145;-79
2021/11/05 09:51:42;;;;;;;2.90;2.70;;;5.60;99.90;;;;;;4755719;30;20059;-79
2021/11/05 09:54:12;;;;;;;2.63;2.33;;;5.70;99.90;;;;;;4748892;30;20056;-79
2021/11/05 09:56:39;;;;;;;2.97;2.15;;;5.70;99.90;;;;;;4749776;30;20083;-79
2021/11/05 09:59:07;;;;;;;2.88;2.65;;;5.70;99.90;;;;;;4733285;30;20052;-79
2021/11/05 10:01:38;;;;;;;2.42;2.22;;;5.80;99.90;;;;;;4748084;30;20609;-79
2021/11/05 10:04:06;;;;;;;2.63;2.22;;;5.70;99.90;;;;;;4761982;30;20059;-79
2021/11/05 10:06:33;;;;;;;2.72;2.53;;;6.10;99.90;;;;;;4767110;30;20383;-79
2021/11/05 10:09:03;;;;;;;2.35;2.10;;;6.40;99.90;;;;;;4765862;30;20056;-80
2021/11/05 10:11:33;;;;;;;2.10;2.00;;;6.50;99.90;;;;;;4767064;30;20060;-79
2021/11/05 10:14:02;;;;;;;2.47;2.28;;;6.60;99.90;;;;;;4766737;30;20055;-81
2021/11/05 10:16:32;;;;;;;2.33;2.13;;;6.80;99.90;;;;;;4766285;30;20411;-81
2021/11/05 10:19:05;;;;;;;4.15;2.25;;;6.90;99.90;;;;;;4750746;30;20453;-81
2021/11/05 10:21:41;;;;;;;2.35;1.85;;;6.90;99.90;;;;;;4766149;30;20058;-82
2021/11/05 10:24:17;;;;;;;2.47;2.28;;;7.00;99.90;;;;;;4772414;30;20056;-81
2021/11/05 10:26:50;;;;;;;3.45;2.25;;;7.10;99.90;;;;;;4783720;30;20039;-86
2021/11/05 10:29:32;;;;;;;2.25;2.05;;;7.10;99.90;;;;;;4770654;29;20039;-84
2021/11/05 10:32:08;;;;;;;6.68;2.28;;;7.10;99.90;;;;;;4782889;29;20055;-82
2021/11/05 10:34:51;;;;;;;2.22;1.67;;;7.00;99.90;;;;;;4753892;30;20051;-82
2021/11/05 10:37:32;;;;;;;4.90;4.10;;;6.90;99.90;;;;;;4768496;30;20506;-82
2021/11/05 10:40:02;;;;;;;1.80;1.70;;;6.90;99.90;;;;;;4755865;30;20056;-84
2021/11/05 10:42:40;;;;;;;2.20;2.10;;;6.90;99.90;;;;;;4750470;30;20627;-83
2021/11/05 10:45:24;;;;;;;2.75;1.98;;;6.90;99.90;;;;;;4766034;30;20059;-85
2021/11/05 10:47:55;;;;;;;2.13;2.03;;;7.00;99.90;;;;;;4745245;30;20094;-84
2021/11/05 10:50:28;;;;;;;2.58;1.83;;;6.80;99.90;;;;;;4764809;30;20617;-83
2021/11/05 10:53:07;;;;;;;2.20;2.10;;;6.70;99.90;;;;;;4765834;30;20060;-83
2021/11/05 10:55:39;;;;;;;2.65;2.30;;;6.60;99.90;;;;;;4763769;30;20409;-80
2021/11/05 10:58:07;;;;;;;2.00;1.80;;;6.70;99.90;;;;;;4765813;30;20060;-79
2021/11/05 11:00:35;;;;;;;4.35;2.20;;;6.90;99.90;;;;;;4781006;29;20051;-79
2021/11/05 11:03:13;;;;;;;2.03;1.80;;;7.00;99.90;;;;;;4783404;29;20043;-80
2021/11/05 11:05:45;;;;;;;2.88;2.45;;;7.10;99.90;;;;;;4755874;30;20056;-80
2021/11/05 11:08:25;;;;;;;2.08;1.98;;;7.10;99.90;;;;;;4773316;30;20410;-80
2021/11/05 11:10:57;;;;;;;2.47;2.22;;;7.20;99.90;;;;;;4769287;30;20072;-80
2021/11/05 11:13:33;;;;;;;2.83;2.33;;;7.20;99.90;;;;;;4769537;29;20056;-81
2021/11/05 11:16:02;;;;;;;2.08;1.98;;;6.90;99.90;;;;;;4761934;29;20070;-82
2021/11/05 11:18:30;;;;;;;2.35;2.13;;;7.00;99.90;;;;;;4784954;29;20051;-80
2021/11/05 11:20:59;;;;;;;1.77;1.67;;;7.00;99.90;;;;;;4744267;29;20486;-81
2021/11/05 11:23:27;;;;;;;2.92;2.55;;;7.10;99.90;;;;;;4760543;30;20044;-82
2021/11/05 11:25:55;;;;;;;3.88;2.45;;;7.10;99.90;;;;;;4762212;30;20517;-83
2021/11/05 11:28:26;;;;;;;3.25;2.10;;;7.20;99.90;;;;;;4764805;30;20058;-81
2021/11/05 11:30:54;;;;;;;2.33;1.98;;;7.20;99.90;;;;;;4778468;30;20063;-81
2021/11/05 11:33:22;;;;;;;2.92;1.98;;;7.50;99.90;;;;;;4780666;29;20056;-82
2021/11/05 11:35:50;;;;;;;2.67;1.80;;;7.60;99.90;;;;;;4770126;30;20494;-83
2021/11/05 11:38:20;;;;;;;1.77;1.67;;;7.60;99.90;;;;;;4754963;30;20094;-83
2021/11/05 11:40:49;;;;;;;1.88;1.73;;;7.60;99.90;;;;;;4769697;30;20059;-83
2021/11/05 11:43:21;;;;;;;2.15;1.67;;;7.40;99.90;;;;;;4769102;29;20063;-83
2021/11/05 11:45:51;;;;;;;3.50;2.47;;;7.20;99.90;;;;;;4769066;30;20047;-80
2021/11/05 11:48:48;;;;;;;1.98;1.83;;;7.20;99.90;;;;;;4769113;30;20048;-79
2021/11/05 11:51:28;;;;;;;2.85;2.55;;;7.10;99.90;;;;;;4782215;29;20518;-80
2021/11/05 11:54:21;;;;;;;2.17;1.83;;;7.10;99.90;;;;;;4752561;30;20047;-80
2021/11/05 11:56:49;;;;;;;2.85;2.35;;;7.00;99.90;;;;;;4753269;30;20059;-80
2021/11/05 11:59:17;;;;;;;2.53;2.33;;;7.00;99.90;;;;;;4737809;30;20060;-80
2021/11/05 12:01:46;;;;;;;2.17;2.05;;;7.20;99.90;;;;;;4767841;30;20051;-80
2021/11/05 12:04:18;;;;;;;6.13;2.38;;;7.10;99.90;;;;;;4777743;30;20070;-80
2021/11/05 12:06:56;;;;;;;4.10;1.80;;;7.00;99.90;;;;;;4786682;29;20059;-80
2021/11/05 12:09:24;;;;;;;1.60;1.50;;;6.90;99.90;;;;;;4781860;30;20048;-80
2021/11/05 12:12:31;;;;;;;6.10;2.65;;;7.00;99.90;;;;;;4768282;29;20066;-83
2021/11/05 12:15:01;;;;;;;1.77;1.67;;;7.10;99.90;;;;;;4753882;29;20521;-84
2021/11/05 12:17:50;;;;;;;1.80;1.70;;;7.30;99.90;;;;;;4758641;30;20055;-84
2021/11/05 12:20:40;;;;;;;4.85;1.70;;;7.40;99.90;;;;;;4768583;30;20056;-83
2021/11/05 12:23:11;;;;;;;4.85;1.83;;;7.40;99.90;;;;;;4768169;30;20059;-84
2021/11/05 12:26:01;;;;;;;3.17;1.93;;;7.50;99.90;;;;;;4737809;30;20058;-84
2021/11/05 12:28:41;;;;;;;1.90;1.52;;;7.30;99.90;;;;;;4769303;30;20058;-89
2021/11/05 12:31:30;;;;;;;1.75;1.60;;;7.30;99.90;;;;;;4753023;30;20058;-88
2021/11/05 12:34:19;;;;;;;1.55;1.45;;;7.30;99.90;;;;;;4755910;30;20081;-89
2021/11/05 12:36:53;;;;;;;1.83;1.73;;;7.30;99.90;;;;;;4755762;30;20059;-87
2021/11/05 12:39:34;;;;;;;1.95;1.83;;;7.30;99.90;;;;;;4782108;29;20051;-90
2021/11/05 12:42:09;;;;;;;1.70;1.60;;;7.40;99.90;;;;;;4782071;29;20059;-89
2021/11/05 12:45:01;;;;;;;1.52;1.42;;;7.50;99.90;;;;;;4770909;30;20066;-87
2021/11/05 12:47:50;;;;;;;3.33;1.90;;;7.60;99.90;;;;;;4766509;30;20059;-86
2021/11/05 12:50:42;;;;;;;1.60;1.50;;;7.50;99.90;;;;;;4768272;30;20056;-90
2021/11/05 12:53:11;;;;;;;1.98;1.88;;;7.50;99.90;;;;;;4752457;30;20056;-88
2021/11/05 12:55:43;;;;;;;3.35;1.95;;;7.60;99.90;;;;;;4752932;30;20403;-89
2021/11/05 12:58:15;;;;;;;2.47;1.60;;;7.60;99.90;;;;;;4752067;30;20051;-87
2021/11/05 13:01:03;;;;;;;;;;;7.50;99.90;;;;;;4767217;30;20059;-88
2021/11/05 13:03:34;;;;;;;2.30;2.13;;;7.50;99.90;;;;;;4765319;30;19925;-89
2021/11/05 13:06:02;;;;;;;4.60;1.70;;;7.40;99.90;;;;;;4751225;30;21680;-88
2021/11/05 13:08:32;;;;;;;2.60;2.22;;;7.40;99.90;;;;;;4757641;30;20051;-89
2021/11/05 13:11:05;;;;;;;3.72;2.08;;;7.40;99.90;;;;;;4742231;30;20048;-90
2021/11/05 13:13:33;;;;;;;2.65;2.45;;;7.40;99.90;;;;;;4766901;30;20418;-88